WetterOnline ( https://www.wetteronline.de )

Wetter aktuell Neuenstein

Aktuelles Wetter: Bad Hersfeld (273m)

6-stündlich | Neueste Meldungen
Ortszeit Temperatur Wetter
Sa, 15.08. 8:00 17.3° C bedeckt
Sa, 15.08. 2:00 18.0° C leichter Regen
Fr, 14.08. 20:00 22.3° C wolkig
Fr, 14.08. 14:00 20.6° C leichter Regen
Fr, 14.08. 8:00 19.2° C leichter Regen
Fr, 14.08. 2:00 19.4° C bedeckt
Do, 13.08. 20:00 22.6° C bedeckt
Do, 13.08. 14:00 20.2° C bedeckt
Ortszeit Temperatur Wetter
Sa, 15.08. 9:30 18.3° C bedeckt
Sa, 15.08. 9:20 18.3° C bedeckt
Sa, 15.08. 9:10 17.9° C bedeckt
Sa, 15.08. 9:00 17.8° C Nebel
Sa, 15.08. 8:50 17.8° C Nebel
Sa, 15.08. 8:40 17.7° C Nebel
Sa, 15.08. 8:30 17.6° C Nebel
Sa, 15.08. 8:00 17.3° C bedeckt
Ortszeit Relative Feuchte Sichtweite
Sa, 15.08. 8:00 99% 3.3 km
Sa, 15.08. 2:00 97% 9 km
Fr, 14.08. 20:00 73% 55 km
Fr, 14.08. 14:00 89% 27 km
Fr, 14.08. 8:00 93% 14 km
Fr, 14.08. 2:00 87% 30 km
Do, 13.08. 20:00 77% 40 km
Do, 13.08. 14:00 92% 15 km
Ortszeit Relative Feuchte Sichtweite
Sa, 15.08. 9:30 95% 8 km
Sa, 15.08. 9:20 95% -
Sa, 15.08. 9:10 97% -
Sa, 15.08. 9:00 98% 0.2 km
Sa, 15.08. 8:50 98% -
Sa, 15.08. 8:40 98% -
Sa, 15.08. 8:30 98% 0.6 km
Sa, 15.08. 8:00 99% 3.3 km
Ortszeit Niederschlagsmenge Niederschlagsart
Sa, 15.08. 8:00 4 l/m2 in 12 Std. Regen
Sa, 15.08. 2:00 4 l/m2 in 6 Std. Regen
Fr, 14.08. 20:00 3 l/m2 in 12 Std. Regen
Fr, 14.08. 14:00 3 l/m2 in 6 Std. Regen
Fr, 14.08. 8:00 0.4 l/m2 in 12 Std. Regen
Fr, 14.08. 2:00 0.0 l/m2 in 6 Std. -
Do, 13.08. 20:00 19 l/m2 in 12 Std. Regen
Do, 13.08. 14:00 19 l/m2 in 6 Std. Regenschauer
Ortszeit Niederschlagsmenge Niederschlagsart
Sa, 15.08. 9:30 0.0 l/m2 in 1 Std. -
Sa, 15.08. 9:20 keine Meldung -
Sa, 15.08. 9:10 keine Meldung -
Sa, 15.08. 9:00 0.0 l/m2 in 1 Std. -
Sa, 15.08. 8:50 keine Meldung -
Sa, 15.08. 8:40 keine Meldung -
Sa, 15.08. 8:30 0.0 l/m2 in 1 Std. -
Sa, 15.08. 8:00 0.0 l/m2 in 1 Std. Regen
Ortszeit Stärke Spitze Richtung
km/h Bft. km/h Grad Sektor
Sa, 15.08. 8:00 2 1 7 350° N
Sa, 15.08. 2:00 6 1 13 100° O
Fr, 14.08. 20:00 9 2 24 180° S
Fr, 14.08. 14:00 11 2 18 180° S
Fr, 14.08. 8:00 6 1 13 170° S
Fr, 14.08. 2:00 7 2 18 180° S
Do, 13.08. 20:00 4 1 22 150° SO
Do, 13.08. 14:00 6 1 35 210° SW
Ortszeit Stärke Spitze Richtung
km/h Bft. km/h Grad Sektor
Sa, 15.08. 9:30 4 1 7 230° SW
Sa, 15.08. 9:20 4 1 - 230° SW
Sa, 15.08. 9:10 2 1 - 250° W
Sa, 15.08. 9:00 4 1 7 220° SW
Sa, 15.08. 8:50 4 1 - 220° SW
Sa, 15.08. 8:40 2 1 - 230° SW
Sa, 15.08. 8:30 4 1 4 30° NO
Sa, 15.08. 8:00 2 1 6 350° N
Ortszeit Untergrenze Bedeckung Gattung
total tief tief mittel hoch
Sa, 15.08. 8:00 30 m 8/8 8/8 - - -
Sa, 15.08. 2:00 60 m 8/8 3/8 - - -
Fr, 14.08. 20:00 2100 m 8/8 2/8 - - -
Fr, 14.08. 14:00 3000 m 8/8 8/8 - - -
Fr, 14.08. 8:00 1800 m 8/8 5/8 - - -
Fr, 14.08. 2:00 3300 m 8/8 8/8 - - -
Do, 13.08. 20:00 4500 m 8/8 8/8 - - -
Do, 13.08. 14:00 3600 m 8/8 8/8 - - -
Ortszeit Bedeckungsgrad in Achtel und Wolkenuntergrenze
Sa, 15.08. 9:30 8(30m)
Sa, 15.08. 9:20 8(30m)
Sa, 15.08. 9:10 8(<30m)
Sa, 15.08. 9:00 8(<30m)
Sa, 15.08. 8:50 8(<30m)
Sa, 15.08. 8:40 8(<30m)
Sa, 15.08. 8:30 8(30m)
Sa, 15.08. 8:00 8(30m) 8(3300m)
Ortszeit Luftdruck NN (hPa) Tendenz (hPa in 3 Std.)
Sa, 15.08. 8:00 1015 + 0,7
Sa, 15.08. 2:00 1015 - 0,2
Fr, 14.08. 20:00 1013 + 0,2
Fr, 14.08. 14:00 1014 + 0,1
Fr, 14.08. 8:00 1014 + 0,2
Fr, 14.08. 2:00 1013 - 0,1
Do, 13.08. 20:00 1013 - 1,1
Do, 13.08. 14:00 1015 + 0,1
Ortszeit Luftdruck NN (hPa) Tendenz (hPa in 3 Std.)
Sa, 15.08. 9:30 1015 + 0,7
Sa, 15.08. 9:20 1015 keine Meldung
Sa, 15.08. 9:10 1015 keine Meldung
Sa, 15.08. 9:00 1015 + 1,0
Sa, 15.08. 8:50 1015 keine Meldung
Sa, 15.08. 8:40 1015 keine Meldung
Sa, 15.08. 8:30 1015 + 1,0
Sa, 15.08. 8:00 1015 + 0,7
Ortszeit Schneehöhe (cm)
Sa, 15.08. 8:00 -
Sa, 15.08. 2:00 -
Fr, 14.08. 20:00 -
Fr, 14.08. 14:00 -
Fr, 14.08. 8:00 -
Fr, 14.08. 2:00 -
Do, 13.08. 20:00 -
Do, 13.08. 14:00 -
Ortszeit Schneehöhe (cm)
Sa, 15.08. 9:30 -
Sa, 15.08. 9:20 -
Sa, 15.08. 9:10 -
Sa, 15.08. 9:00 -
Sa, 15.08. 8:50 -
Sa, 15.08. 8:40 -
Sa, 15.08. 8:30 -
Sa, 15.08. 8:00 -
Link zu dieser Seite / Seite empfehlen

Das Wetter in ...